sensor_id;sensor_type;location;lat;lon;timestamp;P1;durP1;ratioP1;P2;durP2;ratioP2
18881;SDS011;9573;50.948;11.600;2023-01-20T00:01:33;23.93;;;8.00;;
18881;SDS011;9573;50.948;11.600;2023-01-20T00:04:04;24.07;;;7.90;;
18881;SDS011;9573;50.948;11.600;2023-01-20T00:06:31;23.63;;;7.63;;
18881;SDS011;9573;50.948;11.600;2023-01-20T00:08:59;23.00;;;8.13;;
18881;SDS011;9573;50.948;11.600;2023-01-20T00:11:28;25.53;;;9.00;;
18881;SDS011;9573;50.948;11.600;2023-01-20T00:13:56;26.50;;;8.60;;
18881;SDS011;9573;50.948;11.600;2023-01-20T00:16:25;24.53;;;8.43;;
18881;SDS011;9573;50.948;11.600;2023-01-20T00:18:53;26.13;;;9.17;;
18881;SDS011;9573;50.948;11.600;2023-01-20T00:21:22;26.27;;;9.33;;
18881;SDS011;9573;50.948;11.600;2023-01-20T00:23:49;29.53;;;10.20;;
18881;SDS011;9573;50.948;11.600;2023-01-20T00:26:17;26.40;;;9.47;;
18881;SDS011;9573;50.948;11.600;2023-01-20T00:28:46;27.43;;;9.20;;
18881;SDS011;9573;50.948;11.600;2023-01-20T00:31:15;29.40;;;10.27;;
18881;SDS011;9573;50.948;11.600;2023-01-20T00:33:44;28.53;;;10.13;;
18881;SDS011;9573;50.948;11.600;2023-01-20T00:36:13;29.67;;;10.47;;
18881;SDS011;9573;50.948;11.600;2023-01-20T00:38:43;28.03;;;9.50;;
18881;SDS011;9573;50.948;11.600;2023-01-20T00:41:11;29.77;;;9.57;;
18881;SDS011;9573;50.948;11.600;2023-01-20T00:43:39;30.47;;;10.40;;
18881;SDS011;9573;50.948;11.600;2023-01-20T00:46:06;28.97;;;10.17;;
18881;SDS011;9573;50.948;11.600;2023-01-20T00:48:34;29.53;;;9.70;;
18881;SDS011;9573;50.948;11.600;2023-01-20T00:51:01;28.80;;;9.63;;
18881;SDS011;9573;50.948;11.600;2023-01-20T00:53:29;28.83;;;10.33;;
18881;SDS011;9573;50.948;11.600;2023-01-20T00:55:58;29.53;;;9.83;;
18881;SDS011;9573;50.948;11.600;2023-01-20T00:58:26;27.60;;;9.93;;
18881;SDS011;9573;50.948;11.600;2023-01-20T01:00:53;28.43;;;10.27;;
18881;SDS011;9573;50.948;11.600;2023-01-20T01:03:22;30.73;;;10.70;;
18881;SDS011;9573;50.948;11.600;2023-01-20T01:05:52;32.10;;;10.40;;
18881;SDS011;9573;50.948;11.600;2023-01-20T01:08:19;28.33;;;10.27;;
18881;SDS011;9573;50.948;11.600;2023-01-20T01:10:46;30.33;;;10.70;;
18881;SDS011;9573;50.948;11.600;2023-01-20T01:13:14;27.93;;;9.80;;
18881;SDS011;9573;50.948;11.600;2023-01-20T01:15:46;28.00;;;9.97;;
18881;SDS011;9573;50.948;11.600;2023-01-20T01:18:14;29.33;;;10.43;;
18881;SDS011;9573;50.948;11.600;2023-01-20T01:20:42;30.20;;;10.70;;
18881;SDS011;9573;50.948;11.600;2023-01-20T01:23:09;31.63;;;10.80;;
18881;SDS011;9573;50.948;11.600;2023-01-20T01:25:36;29.07;;;10.10;;
18881;SDS011;9573;50.948;11.600;2023-01-20T01:28:03;32.03;;;10.00;;
18881;SDS011;9573;50.948;11.600;2023-01-20T01:30:32;28.27;;;9.37;;
18881;SDS011;9573;50.948;11.600;2023-01-20T01:32:59;28.20;;;9.30;;
18881;SDS011;9573;50.948;11.600;2023-01-20T01:35:26;29.33;;;9.83;;
18881;SDS011;9573;50.948;11.600;2023-01-20T01:37:53;27.83;;;9.40;;
18881;SDS011;9573;50.948;11.600;2023-01-20T01:40:20;28.00;;;9.50;;
18881;SDS011;9573;50.948;11.600;2023-01-20T01:42:47;32.80;;;9.20;;
18881;SDS011;9573;50.948;11.600;2023-01-20T01:45:22;30.10;;;9.27;;
18881;SDS011;9573;50.948;11.600;2023-01-20T01:47:54;27.47;;;9.23;;
18881;SDS011;9573;50.948;11.600;2023-01-20T01:50:31;26.87;;;9.63;;
18881;SDS011;9573;50.948;11.600;2023-01-20T01:53:04;24.63;;;7.97;;
18881;SDS011;9573;50.948;11.600;2023-01-20T01:55:33;25.83;;;9.07;;
18881;SDS011;9573;50.948;11.600;2023-01-20T01:58:07;27.93;;;9.37;;
18881;SDS011;9573;50.948;11.600;2023-01-20T02:00:40;26.67;;;8.80;;
18881;SDS011;9573;50.948;11.600;2023-01-20T02:03:09;29.13;;;10.37;;
18881;SDS011;9573;50.948;11.600;2023-01-20T02:05:37;28.77;;;9.53;;
18881;SDS011;9573;50.948;11.600;2023-01-20T02:08:05;31.73;;;10.63;;
18881;SDS011;9573;50.948;11.600;2023-01-20T02:10:33;30.93;;;10.73;;
18881;SDS011;9573;50.948;11.600;2023-01-20T02:13:00;28.80;;;10.23;;
18881;SDS011;9573;50.948;11.600;2023-01-20T02:15:29;29.00;;;10.97;;
18881;SDS011;9573;50.948;11.600;2023-01-20T02:18:06;29.73;;;9.93;;
18881;SDS011;9573;50.948;11.600;2023-01-20T02:24:01;31.73;;;10.50;;
18881;SDS011;9573;50.948;11.600;2023-01-20T02:27:01;30.13;;;10.40;;
18881;SDS011;9573;50.948;11.600;2023-01-20T02:29:41;28.53;;;10.00;;
18881;SDS011;9573;50.948;11.600;2023-01-20T02:32:39;29.93;;;10.47;;
18881;SDS011;9573;50.948;11.600;2023-01-20T02:35:16;30.03;;;10.73;;
18881;SDS011;9573;50.948;11.600;2023-01-20T02:37:54;31.50;;;10.40;;
18881;SDS011;9573;50.948;11.600;2023-01-20T02:40:33;30.10;;;10.47;;
18881;SDS011;9573;50.948;11.600;2023-01-20T02:43:09;31.27;;;10.00;;
18881;SDS011;9573;50.948;11.600;2023-01-20T02:45:43;29.80;;;10.00;;
18881;SDS011;9573;50.948;11.600;2023-01-20T02:48:21;28.37;;;9.50;;
18881;SDS011;9573;50.948;11.600;2023-01-20T02:50:53;33.23;;;10.33;;
18881;SDS011;9573;50.948;11.600;2023-01-20T02:53:28;27.50;;;10.07;;
18881;SDS011;9573;50.948;11.600;2023-01-20T02:56:01;30.17;;;9.60;;
18881;SDS011;9573;50.948;11.600;2023-01-20T02:58:32;27.33;;;8.87;;
18881;SDS011;9573;50.948;11.600;2023-01-20T03:01:04;27.73;;;8.83;;
18881;SDS011;9573;50.948;11.600;2023-01-20T03:03:38;27.83;;;9.63;;
18881;SDS011;9573;50.948;11.600;2023-01-20T03:06:11;28.63;;;9.27;;
18881;SDS011;9573;50.948;11.600;2023-01-20T03:08:43;29.30;;;9.57;;
18881;SDS011;9573;50.948;11.600;2023-01-20T03:11:12;28.60;;;9.63;;
18881;SDS011;9573;50.948;11.600;2023-01-20T03:13:40;30.00;;;9.93;;
18881;SDS011;9573;50.948;11.600;2023-01-20T03:16:14;29.23;;;9.53;;
18881;SDS011;9573;50.948;11.600;2023-01-20T03:18:47;30.13;;;10.57;;
18881;SDS011;9573;50.948;11.600;2023-01-20T03:21:15;28.33;;;9.67;;
18881;SDS011;9573;50.948;11.600;2023-01-20T03:23:43;28.30;;;10.00;;
18881;SDS011;9573;50.948;11.600;2023-01-20T03:26:14;28.97;;;9.53;;
18881;SDS011;9573;50.948;11.600;2023-01-20T03:28:43;28.80;;;9.37;;
18881;SDS011;9573;50.948;11.600;2023-01-20T03:31:14;27.73;;;9.93;;
18881;SDS011;9573;50.948;11.600;2023-01-20T03:33:44;30.30;;;10.10;;
18881;SDS011;9573;50.948;11.600;2023-01-20T03:36:15;30.03;;;10.47;;
18881;SDS011;9573;50.948;11.600;2023-01-20T03:38:43;28.13;;;9.80;;
18881;SDS011;9573;50.948;11.600;2023-01-20T03:41:13;26.10;;;8.93;;
18881;SDS011;9573;50.948;11.600;2023-01-20T03:43:51;26.17;;;9.07;;
18881;SDS011;9573;50.948;11.600;2023-01-20T03:46:26;27.73;;;9.73;;
18881;SDS011;9573;50.948;11.600;2023-01-20T03:49:01;30.30;;;9.87;;
18881;SDS011;9573;50.948;11.600;2023-01-20T03:51:38;26.83;;;9.60;;
18881;SDS011;9573;50.948;11.600;2023-01-20T03:54:20;25.97;;;9.30;;
18881;SDS011;9573;50.948;11.600;2023-01-20T03:56:53;27.50;;;9.87;;
18881;SDS011;9573;50.948;11.600;2023-01-20T03:59:28;27.60;;;8.90;;
18881;SDS011;9573;50.948;11.600;2023-01-20T04:01:59;26.73;;;9.13;;
18881;SDS011;9573;50.948;11.600;2023-01-20T04:04:30;27.53;;;9.83;;
18881;SDS011;9573;50.948;11.600;2023-01-20T04:07:00;27.53;;;9.53;;
18881;SDS011;9573;50.948;11.600;2023-01-20T04:09:30;29.53;;;9.47;;
18881;SDS011;9573;50.948;11.600;2023-01-20T04:12:01;28.37;;;9.90;;
18881;SDS011;9573;50.948;11.600;2023-01-20T04:14:28;30.03;;;9.53;;
18881;SDS011;9573;50.948;11.600;2023-01-20T04:16:56;29.33;;;9.90;;
18881;SDS011;9573;50.948;11.600;2023-01-20T04:19:24;27.73;;;9.37;;
18881;SDS011;9573;50.948;11.600;2023-01-20T04:21:54;26.20;;;9.57;;
18881;SDS011;9573;50.948;11.600;2023-01-20T04:24:29;27.27;;;9.63;;
18881;SDS011;9573;50.948;11.600;2023-01-20T04:27:00;27.43;;;9.13;;
18881;SDS011;9573;50.948;11.600;2023-01-20T04:29:27;27.87;;;9.53;;
18881;SDS011;9573;50.948;11.600;2023-01-20T04:31:57;29.83;;;10.13;;
18881;SDS011;9573;50.948;11.600;2023-01-20T04:34:24;28.47;;;9.77;;
18881;SDS011;9573;50.948;11.600;2023-01-20T04:36:53;27.90;;;9.57;;
18881;SDS011;9573;50.948;11.600;2023-01-20T04:39:20;27.13;;;9.40;;
18881;SDS011;9573;50.948;11.600;2023-01-20T04:41:47;33.40;;;10.70;;
18881;SDS011;9573;50.948;11.600;2023-01-20T04:44:15;30.20;;;9.80;;
18881;SDS011;9573;50.948;11.600;2023-01-20T04:46:42;31.43;;;9.47;;
18881;SDS011;9573;50.948;11.600;2023-01-20T04:49:09;24.67;;;9.43;;
18881;SDS011;9573;50.948;11.600;2023-01-20T04:51:36;30.33;;;9.27;;
18881;SDS011;9573;50.948;11.600;2023-01-20T04:54:05;29.53;;;9.93;;
18881;SDS011;9573;50.948;11.600;2023-01-20T04:56:32;29.13;;;9.90;;
18881;SDS011;9573;50.948;11.600;2023-01-20T04:58:59;26.87;;;9.53;;
18881;SDS011;9573;50.948;11.600;2023-01-20T05:01:26;29.40;;;9.10;;
18881;SDS011;9573;50.948;11.600;2023-01-20T05:03:53;26.50;;;8.97;;
18881;SDS011;9573;50.948;11.600;2023-01-20T05:06:20;27.77;;;9.10;;
18881;SDS011;9573;50.948;11.600;2023-01-20T05:08:47;26.10;;;9.20;;
18881;SDS011;9573;50.948;11.600;2023-01-20T05:11:16;27.73;;;9.07;;
18881;SDS011;9573;50.948;11.600;2023-01-20T05:13:43;28.53;;;9.97;;
18881;SDS011;9573;50.948;11.600;2023-01-20T05:16:10;29.30;;;9.87;;
18881;SDS011;9573;50.948;11.600;2023-01-20T05:18:37;28.07;;;9.77;;
18881;SDS011;9573;50.948;11.600;2023-01-20T05:21:05;25.47;;;8.83;;
18881;SDS011;9573;50.948;11.600;2023-01-20T05:23:32;27.17;;;8.87;;
18881;SDS011;9573;50.948;11.600;2023-01-20T05:26:00;27.27;;;9.67;;
18881;SDS011;9573;50.948;11.600;2023-01-20T05:28:28;29.07;;;9.70;;
18881;SDS011;9573;50.948;11.600;2023-01-20T05:30:55;30.33;;;10.20;;
18881;SDS011;9573;50.948;11.600;2023-01-20T05:33:22;27.47;;;9.10;;
18881;SDS011;9573;50.948;11.600;2023-01-20T05:35:49;28.10;;;9.97;;
18881;SDS011;9573;50.948;11.600;2023-01-20T05:38:17;29.30;;;9.97;;
18881;SDS011;9573;50.948;11.600;2023-01-20T05:40:44;30.47;;;9.83;;
18881;SDS011;9573;50.948;11.600;2023-01-20T05:43:11;26.83;;;9.17;;
18881;SDS011;9573;50.948;11.600;2023-01-20T05:45:40;29.80;;;9.63;;
18881;SDS011;9573;50.948;11.600;2023-01-20T05:48:07;26.37;;;8.80;;
18881;SDS011;9573;50.948;11.600;2023-01-20T05:50:34;26.07;;;9.03;;
18881;SDS011;9573;50.948;11.600;2023-01-20T05:53:02;25.97;;;8.80;;
18881;SDS011;9573;50.948;11.600;2023-01-20T05:55:29;27.93;;;9.20;;
18881;SDS011;9573;50.948;11.600;2023-01-20T05:57:56;27.77;;;9.30;;
18881;SDS011;9573;50.948;11.600;2023-01-20T06:00:27;27.47;;;8.93;;
18881;SDS011;9573;50.948;11.600;2023-01-20T06:02:55;26.23;;;8.73;;
18881;SDS011;9573;50.948;11.600;2023-01-20T06:05:22;30.57;;;9.13;;
18881;SDS011;9573;50.948;11.600;2023-01-20T06:07:50;25.83;;;8.30;;
18881;SDS011;9573;50.948;11.600;2023-01-20T06:10:19;27.67;;;9.60;;
18881;SDS011;9573;50.948;11.600;2023-01-20T06:12:50;29.17;;;9.50;;
18881;SDS011;9573;50.948;11.600;2023-01-20T06:15:18;30.20;;;9.47;;
18881;SDS011;9573;50.948;11.600;2023-01-20T06:17:47;28.17;;;9.13;;
18881;SDS011;9573;50.948;11.600;2023-01-20T06:20:16;26.27;;;8.00;;
18881;SDS011;9573;50.948;11.600;2023-01-20T06:22:44;30.70;;;8.73;;
18881;SDS011;9573;50.948;11.600;2023-01-20T06:25:11;28.13;;;8.80;;
18881;SDS011;9573;50.948;11.600;2023-01-20T06:27:38;29.83;;;9.13;;
18881;SDS011;9573;50.948;11.600;2023-01-20T06:30:09;33.43;;;9.33;;
18881;SDS011;9573;50.948;11.600;2023-01-20T06:32:36;31.53;;;9.63;;
18881;SDS011;9573;50.948;11.600;2023-01-20T06:35:04;27.93;;;9.07;;
18881;SDS011;9573;50.948;11.600;2023-01-20T06:37:33;32.93;;;9.97;;
18881;SDS011;9573;50.948;11.600;2023-01-20T06:40:00;34.47;;;11.13;;
18881;SDS011;9573;50.948;11.600;2023-01-20T06:42:27;32.03;;;10.70;;
18881;SDS011;9573;50.948;11.600;2023-01-20T06:44:56;37.50;;;11.80;;
18881;SDS011;9573;50.948;11.600;2023-01-20T06:47:23;37.93;;;12.60;;
18881;SDS011;9573;50.948;11.600;2023-01-20T06:49:50;39.13;;;12.43;;
18881;SDS011;9573;50.948;11.600;2023-01-20T06:52:17;31.77;;;11.07;;
18881;SDS011;9573;50.948;11.600;2023-01-20T06:54:46;35.80;;;10.67;;
18881;SDS011;9573;50.948;11.600;2023-01-20T06:57:13;32.07;;;9.83;;
18881;SDS011;9573;50.948;11.600;2023-01-20T06:59:40;35.07;;;10.67;;
18881;SDS011;9573;50.948;11.600;2023-01-20T07:02:07;30.80;;;9.73;;
18881;SDS011;9573;50.948;11.600;2023-01-20T07:04:36;31.27;;;9.70;;
18881;SDS011;9573;50.948;11.600;2023-01-20T07:07:03;31.47;;;10.60;;
18881;SDS011;9573;50.948;11.600;2023-01-20T07:09:30;34.63;;;10.50;;
18881;SDS011;9573;50.948;11.600;2023-01-20T07:11:58;30.70;;;9.87;;
18881;SDS011;9573;50.948;11.600;2023-01-20T07:14:25;32.57;;;10.43;;
18881;SDS011;9573;50.948;11.600;2023-01-20T07:16:52;44.23;;;10.07;;
18881;SDS011;9573;50.948;11.600;2023-01-20T07:19:19;31.57;;;9.57;;
18881;SDS011;9573;50.948;11.600;2023-01-20T07:21:46;30.40;;;10.27;;
18881;SDS011;9573;50.948;11.600;2023-01-20T07:24:13;31.77;;;10.73;;
18881;SDS011;9573;50.948;11.600;2023-01-20T07:26:41;45.57;;;18.10;;
18881;SDS011;9573;50.948;11.600;2023-01-20T07:29:10;37.67;;;13.40;;
18881;SDS011;9573;50.948;11.600;2023-01-20T07:31:37;33.13;;;11.50;;
18881;SDS011;9573;50.948;11.600;2023-01-20T07:34:04;36.67;;;12.67;;
18881;SDS011;9573;50.948;11.600;2023-01-20T07:36:31;35.77;;;12.50;;
18881;SDS011;9573;50.948;11.600;2023-01-20T07:38:58;37.30;;;11.40;;
18881;SDS011;9573;50.948;11.600;2023-01-20T07:41:25;35.27;;;13.00;;
18881;SDS011;9573;50.948;11.600;2023-01-20T07:43:52;38.37;;;13.57;;
18881;SDS011;9573;50.948;11.600;2023-01-20T07:46:21;41.37;;;12.87;;
18881;SDS011;9573;50.948;11.600;2023-01-20T07:48:48;38.77;;;13.17;;
18881;SDS011;9573;50.948;11.600;2023-01-20T07:51:16;36.90;;;12.63;;
18881;SDS011;9573;50.948;11.600;2023-01-20T07:53:43;34.67;;;12.70;;
18881;SDS011;9573;50.948;11.600;2023-01-20T07:56:13;38.43;;;13.17;;
18881;SDS011;9573;50.948;11.600;2023-01-20T07:58:42;37.93;;;12.27;;
18881;SDS011;9573;50.948;11.600;2023-01-20T08:01:11;33.00;;;10.83;;
18881;SDS011;9573;50.948;11.600;2023-01-20T08:03:42;31.60;;;10.87;;
18881;SDS011;9573;50.948;11.600;2023-01-20T08:06:10;32.07;;;11.00;;
18881;SDS011;9573;50.948;11.600;2023-01-20T08:08:39;30.33;;;10.63;;
18881;SDS011;9573;50.948;11.600;2023-01-20T08:11:07;32.73;;;10.40;;
18881;SDS011;9573;50.948;11.600;2023-01-20T08:13:37;31.50;;;10.83;;
18881;SDS011;9573;50.948;11.600;2023-01-20T08:16:06;33.47;;;10.93;;
18881;SDS011;9573;50.948;11.600;2023-01-20T08:18:35;36.20;;;12.17;;
18881;SDS011;9573;50.948;11.600;2023-01-20T08:21:04;33.77;;;12.57;;
18881;SDS011;9573;50.948;11.600;2023-01-20T08:23:33;37.23;;;12.90;;
18881;SDS011;9573;50.948;11.600;2023-01-20T08:26:01;38.47;;;13.30;;
18881;SDS011;9573;50.948;11.600;2023-01-20T08:28:32;34.37;;;12.93;;
18881;SDS011;9573;50.948;11.600;2023-01-20T08:31:04;39.07;;;14.07;;
18881;SDS011;9573;50.948;11.600;2023-01-20T08:33:35;30.70;;;11.83;;
18881;SDS011;9573;50.948;11.600;2023-01-20T08:36:05;31.90;;;10.47;;
18881;SDS011;9573;50.948;11.600;2023-01-20T08:38:35;35.63;;;12.40;;
18881;SDS011;9573;50.948;11.600;2023-01-20T08:41:05;27.13;;;10.47;;
18881;SDS011;9573;50.948;11.600;2023-01-20T08:43:33;30.57;;;11.00;;
18881;SDS011;9573;50.948;11.600;2023-01-20T08:46:01;28.07;;;9.93;;
18881;SDS011;9573;50.948;11.600;2023-01-20T08:48:30;27.33;;;9.77;;
18881;SDS011;9573;50.948;11.600;2023-01-20T08:50:57;29.33;;;10.20;;
18881;SDS011;9573;50.948;11.600;2023-01-20T08:53:26;25.50;;;9.43;;
18881;SDS011;9573;50.948;11.600;2023-01-20T08:55:54;28.10;;;9.87;;
18881;SDS011;9573;50.948;11.600;2023-01-20T08:58:22;28.53;;;10.20;;
18881;SDS011;9573;50.948;11.600;2023-01-20T09:00:50;26.10;;;10.03;;
18881;SDS011;9573;50.948;11.600;2023-01-20T09:03:17;23.43;;;9.23;;
18881;SDS011;9573;50.948;11.600;2023-01-20T09:05:45;25.10;;;9.60;;
18881;SDS011;9573;50.948;11.600;2023-01-20T09:08:12;28.67;;;9.97;;
18881;SDS011;9573;50.948;11.600;2023-01-20T09:10:42;28.33;;;9.60;;
18881;SDS011;9573;50.948;11.600;2023-01-20T09:13:09;27.13;;;10.17;;
18881;SDS011;9573;50.948;11.600;2023-01-20T09:15:37;25.57;;;9.63;;
18881;SDS011;9573;50.948;11.600;2023-01-20T09:18:04;23.67;;;9.40;;
18881;SDS011;9573;50.948;11.600;2023-01-20T09:20:31;23.73;;;9.07;;
18881;SDS011;9573;50.948;11.600;2023-01-20T09:22:59;25.93;;;9.80;;
18881;SDS011;9573;50.948;11.600;2023-01-20T09:25:27;27.93;;;10.57;;
18881;SDS011;9573;50.948;11.600;2023-01-20T09:27:56;26.07;;;9.33;;
18881;SDS011;9573;50.948;11.600;2023-01-20T09:30:25;28.50;;;9.97;;
18881;SDS011;9573;50.948;11.600;2023-01-20T09:32:53;26.03;;;10.50;;
18881;SDS011;9573;50.948;11.600;2023-01-20T09:35:21;28.87;;;9.80;;
18881;SDS011;9573;50.948;11.600;2023-01-20T09:37:48;27.40;;;9.53;;
18881;SDS011;9573;50.948;11.600;2023-01-20T09:40:34;25.50;;;10.03;;
18881;SDS011;9573;50.948;11.600;2023-01-20T09:43:32;26.47;;;10.57;;
18881;SDS011;9573;50.948;11.600;2023-01-20T09:46:26;26.23;;;9.93;;
18881;SDS011;9573;50.948;11.600;2023-01-20T09:52:20;29.43;;;10.93;;
18881;SDS011;9573;50.948;11.600;2023-01-20T09:55:11;28.53;;;10.80;;
18881;SDS011;9573;50.948;11.600;2023-01-20T09:57:49;29.47;;;10.63;;
18881;SDS011;9573;50.948;11.600;2023-01-20T10:00:26;30.93;;;11.60;;
18881;SDS011;9573;50.948;11.600;2023-01-20T10:02:58;28.63;;;11.17;;
18881;SDS011;9573;50.948;11.600;2023-01-20T10:05:31;31.33;;;11.00;;
18881;SDS011;9573;50.948;11.600;2023-01-20T10:08:05;27.67;;;11.10;;
18881;SDS011;9573;50.948;11.600;2023-01-20T10:10:39;33.60;;;14.73;;
18881;SDS011;9573;50.948;11.600;2023-01-20T10:13:14;29.00;;;12.03;;
18881;SDS011;9573;50.948;11.600;2023-01-20T10:15:49;31.27;;;13.10;;
18881;SDS011;9573;50.948;11.600;2023-01-20T10:18:21;29.27;;;12.03;;
18881;SDS011;9573;50.948;11.600;2023-01-20T10:20:56;30.80;;;11.83;;
18881;SDS011;9573;50.948;11.600;2023-01-20T10:23:27;31.67;;;11.63;;
18881;SDS011;9573;50.948;11.600;2023-01-20T10:26:03;31.30;;;12.97;;
18881;SDS011;9573;50.948;11.600;2023-01-20T10:28:35;31.57;;;12.97;;
18881;SDS011;9573;50.948;11.600;2023-01-20T10:31:08;34.77;;;14.47;;
18881;SDS011;9573;50.948;11.600;2023-01-20T10:33:39;44.60;;;21.97;;
18881;SDS011;9573;50.948;11.600;2023-01-20T10:36:11;42.03;;;17.07;;
18881;SDS011;9573;50.948;11.600;2023-01-20T10:38:48;43.90;;;18.43;;
18881;SDS011;9573;50.948;11.600;2023-01-20T10:41:21;36.10;;;15.40;;
18881;SDS011;9573;50.948;11.600;2023-01-20T10:43:56;29.30;;;10.80;;
18881;SDS011;9573;50.948;11.600;2023-01-20T10:46:33;32.43;;;14.10;;
18881;SDS011;9573;50.948;11.600;2023-01-20T10:52:59;33.13;;;11.77;;
18881;SDS011;9573;50.948;11.600;2023-01-20T10:55:47;36.37;;;12.67;;
18881;SDS011;9573;50.948;11.600;2023-01-20T10:58:29;34.00;;;12.80;;
18881;SDS011;9573;50.948;11.600;2023-01-20T11:01:00;32.53;;;12.30;;
18881;SDS011;9573;50.948;11.600;2023-01-20T11:03:34;33.50;;;11.90;;
18881;SDS011;9573;50.948;11.600;2023-01-20T11:06:05;32.33;;;12.30;;
18881;SDS011;9573;50.948;11.600;2023-01-20T11:08:36;33.47;;;12.60;;
18881;SDS011;9573;50.948;11.600;2023-01-20T11:11:08;36.03;;;14.07;;
18881;SDS011;9573;50.948;11.600;2023-01-20T11:13:38;38.57;;;15.57;;
18881;SDS011;9573;50.948;11.600;2023-01-20T11:16:08;31.73;;;12.40;;
18881;SDS011;9573;50.948;11.600;2023-01-20T11:18:43;34.57;;;12.93;;
18881;SDS011;9573;50.948;11.600;2023-01-20T11:21:23;38.80;;;13.00;;
18881;SDS011;9573;50.948;11.600;2023-01-20T11:23:53;35.50;;;12.93;;
18881;SDS011;9573;50.948;11.600;2023-01-20T11:26:22;34.77;;;13.43;;
18881;SDS011;9573;50.948;11.600;2023-01-20T11:28:53;39.77;;;14.73;;
18881;SDS011;9573;50.948;11.600;2023-01-20T11:31:32;36.13;;;13.27;;
18881;SDS011;9573;50.948;11.600;2023-01-20T11:34:21;30.80;;;13.03;;
18881;SDS011;9573;50.948;11.600;2023-01-20T11:37:08;32.23;;;12.20;;
18881;SDS011;9573;50.948;11.600;2023-01-20T11:39:42;33.50;;;12.60;;
18881;SDS011;9573;50.948;11.600;2023-01-20T11:42:23;32.70;;;12.33;;
18881;SDS011;9573;50.948;11.600;2023-01-20T11:44:53;34.43;;;12.83;;
18881;SDS011;9573;50.948;11.600;2023-01-20T11:47:23;32.30;;;10.90;;
18881;SDS011;9573;50.948;11.600;2023-01-20T11:50:17;29.87;;;11.37;;
18881;SDS011;9573;50.948;11.600;2023-01-20T11:52:50;29.93;;;11.73;;
18881;SDS011;9573;50.948;11.600;2023-01-20T11:55:19;33.70;;;12.63;;
18881;SDS011;9573;50.948;11.600;2023-01-20T11:57:50;28.83;;;11.97;;
18881;SDS011;9573;50.948;11.600;2023-01-20T12:00:26;32.77;;;12.17;;
18881;SDS011;9573;50.948;11.600;2023-01-20T12:03:02;31.53;;;11.90;;
18881;SDS011;9573;50.948;11.600;2023-01-20T12:05:53;33.40;;;13.20;;
18881;SDS011;9573;50.948;11.600;2023-01-20T12:08:25;32.00;;;12.17;;
18881;SDS011;9573;50.948;11.600;2023-01-20T12:10:57;35.13;;;12.30;;
18881;SDS011;9573;50.948;11.600;2023-01-20T12:13:29;31.50;;;12.73;;
18881;SDS011;9573;50.948;11.600;2023-01-20T12:16:21;32.03;;;13.17;;
18881;SDS011;9573;50.948;11.600;2023-01-20T12:18:51;35.40;;;13.67;;
18881;SDS011;9573;50.948;11.600;2023-01-20T12:21:25;33.90;;;13.07;;
18881;SDS011;9573;50.948;11.600;2023-01-20T12:24:01;31.97;;;12.80;;
18881;SDS011;9573;50.948;11.600;2023-01-20T12:26:34;30.70;;;13.13;;
18881;SDS011;9573;50.948;11.600;2023-01-20T12:29:03;32.07;;;12.43;;
18881;SDS011;9573;50.948;11.600;2023-01-20T12:31:38;34.07;;;12.23;;
18881;SDS011;9573;50.948;11.600;2023-01-20T12:34:08;31.30;;;12.57;;
18881;SDS011;9573;50.948;11.600;2023-01-20T12:36:52;30.10;;;10.77;;
18881;SDS011;9573;50.948;11.600;2023-01-20T12:39:39;27.80;;;10.27;;
18881;SDS011;9573;50.948;11.600;2023-01-20T12:42:56;29.17;;;10.20;;
18881;SDS011;9573;50.948;11.600;2023-01-20T12:45:45;27.30;;;10.40;;
18881;SDS011;9573;50.948;11.600;2023-01-20T12:48:53;27.23;;;10.93;;
18881;SDS011;9573;50.948;11.600;2023-01-20T12:51:39;26.80;;;10.63;;
18881;SDS011;9573;50.948;11.600;2023-01-20T12:54:28;28.13;;;10.73;;
18881;SDS011;9573;50.948;11.600;2023-01-20T12:57:20;19.93;;;6.27;;
18881;SDS011;9573;50.948;11.600;2023-01-20T13:03:09;18.43;;;6.27;;
18881;SDS011;9573;50.948;11.600;2023-01-20T13:06:11;23.70;;;6.47;;
18881;SDS011;9573;50.948;11.600;2023-01-20T13:09:01;17.10;;;5.73;;
18881;SDS011;9573;50.948;11.600;2023-01-20T13:11:44;19.43;;;6.00;;
18881;SDS011;9573;50.948;11.600;2023-01-20T13:14:23;21.60;;;6.10;;
18881;SDS011;9573;50.948;11.600;2023-01-20T13:17:05;34.40;;;7.27;;
18881;SDS011;9573;50.948;11.600;2023-01-20T13:19:42;22.90;;;7.07;;
18881;SDS011;9573;50.948;11.600;2023-01-20T13:22:14;24.33;;;7.50;;
18881;SDS011;9573;50.948;11.600;2023-01-20T13:24:47;18.97;;;6.87;;
18881;SDS011;9573;50.948;11.600;2023-01-20T13:27:17;22.20;;;6.83;;
18881;SDS011;9573;50.948;11.600;2023-01-20T13:29:56;18.47;;;6.27;;
18881;SDS011;9573;50.948;11.600;2023-01-20T13:32:25;17.77;;;6.33;;
18881;SDS011;9573;50.948;11.600;2023-01-20T13:34:54;18.50;;;6.50;;
18881;SDS011;9573;50.948;11.600;2023-01-20T13:37:29;23.30;;;5.97;;
18881;SDS011;9573;50.948;11.600;2023-01-20T13:40:02;18.43;;;6.50;;
18881;SDS011;9573;50.948;11.600;2023-01-20T13:49:13;24.77;;;7.20;;
18881;SDS011;9573;50.948;11.600;2023-01-20T13:51:49;20.37;;;7.10;;
18881;SDS011;9573;50.948;11.600;2023-01-20T14:00:12;21.40;;;6.20;;
18881;SDS011;9573;50.948;11.600;2023-01-20T14:02:41;25.33;;;7.23;;
18881;SDS011;9573;50.948;11.600;2023-01-20T14:08:00;21.60;;;7.33;;
18881;SDS011;9573;50.948;11.600;2023-01-20T14:10:27;19.33;;;6.97;;
18881;SDS011;9573;50.948;11.600;2023-01-20T14:12:57;23.43;;;7.53;;
18881;SDS011;9573;50.948;11.600;2023-01-20T14:15:26;30.83;;;7.90;;
18881;SDS011;9573;50.948;11.600;2023-01-20T14:18:00;21.27;;;6.80;;
18881;SDS011;9573;50.948;11.600;2023-01-20T14:20:29;23.80;;;7.80;;
18881;SDS011;9573;50.948;11.600;2023-01-20T14:28:41;36.10;;;10.13;;
18881;SDS011;9573;50.948;11.600;2023-01-20T14:31:15;22.90;;;8.90;;
18881;SDS011;9573;50.948;11.600;2023-01-20T14:33:51;28.70;;;9.97;;
18881;SDS011;9573;50.948;11.600;2023-01-20T14:36:23;27.53;;;9.40;;
18881;SDS011;9573;50.948;11.600;2023-01-20T14:38:55;31.63;;;9.57;;
18881;SDS011;9573;50.948;11.600;2023-01-20T14:41:26;28.13;;;9.70;;
18881;SDS011;9573;50.948;11.600;2023-01-20T14:44:00;31.50;;;10.13;;
18881;SDS011;9573;50.948;11.600;2023-01-20T14:46:28;34.70;;;10.63;;
18881;SDS011;9573;50.948;11.600;2023-01-20T14:48:58;29.57;;;9.97;;
18881;SDS011;9573;50.948;11.600;2023-01-20T14:51:25;29.30;;;10.77;;
18881;SDS011;9573;50.948;11.600;2023-01-20T14:57:03;29.73;;;10.33;;
18881;SDS011;9573;50.948;11.600;2023-01-20T15:00:03;30.67;;;11.23;;
18881;SDS011;9573;50.948;11.600;2023-01-20T15:02:39;31.90;;;11.47;;
18881;SDS011;9573;50.948;11.600;2023-01-20T15:05:22;31.57;;;10.40;;
18881;SDS011;9573;50.948;11.600;2023-01-20T15:13:37;36.93;;;13.93;;
18881;SDS011;9573;50.948;11.600;2023-01-20T15:16:10;37.37;;;12.70;;
18881;SDS011;9573;50.948;11.600;2023-01-20T15:18:43;35.67;;;12.13;;
18881;SDS011;9573;50.948;11.600;2023-01-20T15:21:44;35.10;;;12.53;;
18881;SDS011;9573;50.948;11.600;2023-01-20T15:24:13;36.23;;;11.67;;
18881;SDS011;9573;50.948;11.600;2023-01-20T15:26:42;32.47;;;11.30;;
18881;SDS011;9573;50.948;11.600;2023-01-20T15:29:18;35.13;;;11.67;;
18881;SDS011;9573;50.948;11.600;2023-01-20T15:31:48;33.37;;;11.03;;
18881;SDS011;9573;50.948;11.600;2023-01-20T15:34:16;31.23;;;10.70;;
18881;SDS011;9573;50.948;11.600;2023-01-20T15:36:45;32.87;;;10.97;;
18881;SDS011;9573;50.948;11.600;2023-01-20T15:39:13;32.17;;;11.00;;